Time;durP1;ratioP1;P1;durP2;ratioP2;P2;SDS_P1;SDS_P2;PMS_P1;PMS_P2;Temp;Humidity;BMP_temperature;BMP_pressure;BME280_temperature;BME280_humidity;BME280_pressure;Samples;Min_cycle;Max_cycle;Signal;HPM_P1;HPM_P2
2022/06/06 00:02:22;;;;;;;5.60;2.83;;;15.80;99.90;;;;;;5033482;28;20170;-43
2022/06/06 00:04:49;;;;;;;2.77;2.53;;;15.70;99.90;;;;;;5050851;28;20194;-43
2022/06/06 00:07:15;;;;;;;4.80;3.00;;;15.70;99.90;;;;;;5033844;28;20196;-42
2022/06/06 00:09:41;;;;;;;3.27;2.80;;;15.70;99.90;;;;;;5033043;28;20280;-43
2022/06/06 00:12:07;;;;;;;5.70;3.20;;;15.70;99.90;;;;;;5050069;28;20320;-43
2022/06/06 00:14:34;;;;;;;5.57;3.37;;;15.70;99.90;;;;;;5016537;28;20243;-43
2022/06/06 00:17:00;;;;;;;6.00;3.57;;;15.60;99.90;;;;;;5033360;28;20267;-42
2022/06/06 00:19:27;;;;;;;5.17;3.40;;;15.60;99.90;;;;;;5033065;28;20180;-43
2022/06/06 00:21:53;;;;;;;5.23;3.23;;;15.60;99.90;;;;;;5051129;28;20204;-42
2022/06/06 00:24:20;;;;;;;3.40;2.80;;;15.60;99.90;;;;;;5050587;28;20225;-43
2022/06/06 00:26:46;;;;;;;3.90;2.90;;;15.60;99.90;;;;;;5050898;28;20178;-42
2022/06/06 00:29:18;;;;;;;4.03;2.67;;;15.70;99.90;;;;;;5016052;28;20239;-42
2022/06/06 00:37:16;;;;;;;3.63;2.80;;;15.60;99.90;;;;;;5050541;28;20659;-42
2022/06/06 00:39:42;;;;;;;6.83;3.10;;;15.60;99.90;;;;;;5032644;28;20259;-41
2022/06/06 00:42:19;;;;;;;6.70;3.37;;;15.50;99.90;;;;;;5032579;28;20185;-43
2022/06/06 00:44:45;;;;;;;5.80;3.27;;;15.60;99.90;;;;;;5016167;28;20201;-42
2022/06/06 00:47:17;;;;;;;4.70;3.30;;;15.50;99.90;;;;;;5050684;28;20182;-42
2022/06/06 00:49:51;;;;;;;3.13;2.73;;;15.50;99.90;;;;;;5032921;28;20178;-43
2022/06/06 00:52:25;;;;;;;3.30;3.00;;;15.50;99.90;;;;;;5016353;28;20239;-43
2022/06/06 00:54:56;;;;;;;4.03;2.97;;;15.50;99.90;;;;;;5032390;28;20256;-42
2022/06/06 00:57:31;;;;;;;5.80;3.30;;;15.50;99.90;;;;;;5016434;28;20208;-42
2022/06/06 00:59:58;;;;;;;3.57;3.00;;;15.50;99.90;;;;;;5016381;28;20173;-42
2022/06/06 01:02:23;;;;;;;4.73;2.80;;;15.50;99.90;;;;;;5016187;28;20182;-42
2022/06/06 01:04:50;;;;;;;3.40;3.10;;;15.50;99.90;;;;;;5050317;28;20190;-42
2022/06/06 01:07:16;;;;;;;5.23;3.13;;;15.40;99.90;;;;;;5032598;28;20186;-42
2022/06/06 01:09:43;;;;;;;7.10;3.20;;;15.40;99.90;;;;;;5016762;28;20205;-42
2022/06/06 01:12:15;;;;;;;6.03;3.40;;;15.40;99.90;;;;;;5012523;28;20193;-42
2022/06/06 01:14:54;;;;;;;3.70;2.90;;;15.40;99.90;;;;;;5030246;28;20207;-43
2022/06/06 01:17:38;;;;;;;5.50;3.00;;;15.50;99.90;;;;;;5029322;28;20214;-43
2022/06/06 01:20:32;;;;;;;4.40;2.70;;;15.50;99.90;;;;;;5030423;28;20179;-43
2022/06/06 01:23:27;;;;;;;5.50;2.90;;;15.40;99.90;;;;;;5012917;28;20241;-42
2022/06/06 01:26:12;;;;;;;3.90;3.50;;;15.40;99.90;;;;;;5026695;28;20274;-42
2022/06/06 01:28:53;;;;;;;4.73;3.17;;;15.30;99.90;;;;;;5012510;28;20321;-43
2022/06/06 01:31:48;;;;;;;5.50;3.43;;;15.30;99.90;;;;;;4997804;28;20175;-42
2022/06/06 01:34:25;;;;;;;6.17;3.47;;;15.30;99.90;;;;;;5015750;28;20190;-42
2022/06/06 01:36:53;;;;;;;4.43;3.60;;;15.30;99.90;;;;;;5032266;28;20262;-43
2022/06/06 01:39:21;;;;;;;3.40;3.00;;;15.20;99.90;;;;;;5048727;28;20178;-43
2022/06/06 01:42:05;;;;;;;3.80;3.40;;;15.20;99.90;;;;;;5016755;28;20178;-41
2022/06/06 01:44:37;;;;;;;8.20;3.83;;;15.20;99.90;;;;;;5035763;28;20265;-43
2022/06/06 01:47:09;;;;;;;3.90;3.07;;;15.20;99.90;;;;;;5052359;28;20657;-41
2022/06/06 01:49:36;;;;;;;4.43;3.40;;;15.10;99.90;;;;;;5035763;28;20192;-41
2022/06/06 01:52:07;;;;;;;7.50;3.77;;;15.10;99.90;;;;;;5019491;28;20281;-43
2022/06/06 01:54:33;;;;;;;3.97;3.30;;;15.00;99.90;;;;;;5035574;28;20214;-42
2022/06/06 01:57:01;;;;;;;5.00;3.67;;;15.10;99.90;;;;;;5035816;28;20205;-42
2022/06/06 01:59:27;;;;;;;3.60;3.27;;;15.00;99.90;;;;;;5035186;28;20189;-40
2022/06/06 02:01:53;;;;;;;5.57;3.60;;;14.90;99.90;;;;;;5053595;28;20174;-42
2022/06/06 02:04:19;;;;;;;3.90;3.60;;;14.90;99.90;;;;;;5017396;28;20567;-42
2022/06/06 02:06:45;;;;;;;4.97;3.60;;;14.90;99.90;;;;;;5035548;28;20258;-43
2022/06/06 02:09:12;;;;;;;4.40;3.47;;;14.90;99.90;;;;;;5052172;28;20284;-42
2022/06/06 02:11:38;;;;;;;7.37;3.60;;;14.80;99.90;;;;;;5052090;28;20180;-42
2022/06/06 02:14:04;;;;;;;5.30;3.73;;;14.70;99.90;;;;;;5053000;28;20180;-42
2022/06/06 02:16:31;;;;;;;4.03;3.73;;;14.70;99.90;;;;;;5035011;28;20183;-41
2022/06/06 02:18:57;;;;;;;7.47;3.67;;;14.70;99.90;;;;;;5034720;28;20178;-43
2022/06/06 02:21:23;;;;;;;4.77;4.33;;;14.60;99.90;;;;;;5052157;28;20185;-42
2022/06/06 02:23:48;;;;;;;4.40;4.00;;;14.60;99.90;;;;;;5035054;28;20173;-42
2022/06/06 02:26:16;;;;;;;5.90;4.23;;;14.50;99.90;;;;;;5015254;28;20672;-43
2022/06/06 02:28:42;;;;;;;6.50;3.50;;;14.50;99.90;;;;;;5015157;28;20183;-42
2022/06/06 02:31:09;;;;;;;4.93;3.83;;;14.50;99.90;;;;;;5015343;28;20197;-42
2022/06/06 02:33:36;;;;;;;4.13;3.53;;;14.50;99.90;;;;;;5018234;28;20189;-42
2022/06/06 02:36:03;;;;;;;8.57;3.93;;;14.50;99.90;;;;;;5034828;28;20209;-42
2022/06/06 02:38:30;;;;;;;5.90;4.00;;;14.60;99.90;;;;;;5052780;28;20209;-42
2022/06/06 02:41:07;;;;;;;3.87;3.53;;;14.60;99.90;;;;;;5018497;28;20263;-43
2022/06/06 02:43:42;;;;;;;5.07;3.43;;;14.60;99.90;;;;;;5034879;28;20188;-42
2022/06/06 02:46:11;;;;;;;5.40;3.23;;;14.60;99.90;;;;;;5018273;28;20235;-42
2022/06/06 02:48:37;;;;;;;5.67;3.30;;;14.70;99.90;;;;;;5035073;28;20209;-43
2022/06/06 02:51:04;;;;;;;5.00;3.03;;;14.70;99.90;;;;;;5018243;28;20212;-42
2022/06/06 02:53:30;;;;;;;4.67;3.40;;;14.70;99.90;;;;;;5052161;28;20220;-42
2022/06/06 02:55:57;;;;;;;5.20;3.57;;;14.70;99.90;;;;;;5034278;28;20206;-42
2022/06/06 02:58:24;;;;;;;4.67;3.50;;;14.60;99.90;;;;;;5052442;28;20205;-42
2022/06/06 03:01:14;;;;;;;5.93;3.20;;;14.60;99.90;;;;;;5025042;28;20182;-42
2022/06/06 03:03:40;;;;;;;5.10;3.67;;;14.50;99.90;;;;;;5014377;28;20259;-41
2022/06/06 03:06:09;;;;;;;3.83;3.00;;;14.50;99.90;;;;;;4998593;28;20221;-42
2022/06/06 03:08:40;;;;;;;4.10;3.53;;;14.50;99.90;;;;;;5052142;28;20183;-41
2022/06/06 03:11:37;;;;;;;4.83;3.67;;;14.50;99.90;;;;;;5034433;28;20185;-43
2022/06/06 03:14:28;;;;;;;4.30;3.70;;;14.50;99.90;;;;;;5051961;28;20178;-42
2022/06/06 03:25:20;;;;;;;4.13;3.13;;;14.50;99.90;;;;;;5067942;28;20227;-44
2022/06/06 03:28:24;;;;;;;4.73;3.70;;;14.40;99.90;;;;;;5070547;28;20196;-44
2022/06/06 03:31:34;;;;;;;5.10;3.80;;;14.40;99.90;;;;;;5012942;28;20210;-44
2022/06/06 03:34:20;;;;;;;6.43;3.87;;;14.40;99.90;;;;;;5050413;28;20186;-44
2022/06/06 03:37:27;;;;;;;6.57;3.77;;;14.40;99.90;;;;;;5050423;28;20181;-44
2022/06/06 03:40:34;;;;;;;5.57;3.60;;;14.40;99.90;;;;;;5029871;28;20189;-44
2022/06/06 03:43:33;;;;;;;6.33;4.00;;;14.40;99.90;;;;;;5007653;28;20317;-44
2022/06/06 03:46:27;;;;;;;4.80;4.00;;;14.30;99.90;;;;;;4997439;28;20197;-44
2022/06/06 03:49:10;;;;;;;5.40;4.10;;;14.20;99.90;;;;;;5030400;28;20178;-44
2022/06/06 03:52:00;;;;;;;6.60;4.43;;;14.20;99.90;;;;;;4997514;28;20234;-44
2022/06/06 03:55:04;;;;;;;6.03;3.77;;;14.20;99.90;;;;;;5032450;28;20181;-44
2022/06/06 03:57:34;;;;;;;6.40;3.97;;;14.20;99.90;;;;;;5050009;28;20220;-44
2022/06/06 04:00:06;;;;;;;9.67;4.00;;;14.20;99.90;;;;;;5051071;28;20578;-44
2022/06/06 04:02:41;;;;;;;6.37;4.13;;;14.20;99.90;;;;;;5050461;28;20201;-44
2022/06/06 04:05:14;;;;;;;6.37;4.10;;;14.20;99.90;;;;;;5032256;28;20181;-44
2022/06/06 04:07:40;;;;;;;5.27;4.10;;;14.20;99.90;;;;;;5033168;28;20186;-44
2022/06/06 04:10:07;;;;;;;5.73;3.90;;;14.20;99.90;;;;;;5033273;28;20182;-44
2022/06/06 04:12:40;;;;;;;7.40;4.13;;;14.30;99.90;;;;;;5049637;28;20202;-45
2022/06/06 04:15:25;;;;;;;5.83;4.17;;;14.20;99.90;;;;;;5049745;28;20178;-44
2022/06/06 04:18:15;;;;;;;4.40;4.00;;;14.30;99.90;;;;;;5033189;28;20259;-44
2022/06/06 04:20:47;;;;;;;6.73;4.23;;;14.30;99.90;;;;;;5033069;28;20265;-44
2022/06/06 04:24:04;;;;;;;7.03;3.87;;;14.20;99.90;;;;;;5049046;28;20296;-44
2022/06/06 04:27:00;;;;;;;5.93;4.23;;;14.30;99.90;;;;;;4996576;28;20182;-44
2022/06/06 04:29:46;;;;;;;6.67;4.07;;;14.40;99.90;;;;;;5048457;28;20268;-44
2022/06/06 04:32:19;;;;;;;4.30;3.90;;;14.40;99.90;;;;;;5048818;28;20255;-44
2022/06/06 04:35:09;;;;;;;4.03;3.63;;;14.50;99.90;;;;;;5050637;28;20257;-44
2022/06/06 04:37:54;;;;;;;5.63;3.80;;;14.60;99.90;;;;;;5049316;28;20240;-44
2022/06/06 04:40:23;;;;;;;4.40;4.00;;;14.60;99.90;;;;;;5049283;28;20223;-44
2022/06/06 04:42:49;;;;;;;4.10;3.70;;;14.70;99.90;;;;;;5050582;28;20189;-44
2022/06/06 04:45:23;;;;;;;7.63;3.87;;;14.70;99.90;;;;;;5032409;28;20182;-44
2022/06/06 04:47:49;;;;;;;4.63;3.97;;;14.80;99.90;;;;;;5047423;28;20199;-44
2022/06/06 04:50:18;;;;;;;5.40;4.13;;;14.80;99.90;;;;;;5016063;28;20698;-44
2022/06/06 04:52:53;;;;;;;4.57;3.90;;;14.90;99.90;;;;;;5032749;28;20255;-44
2022/06/06 04:55:20;;;;;;;4.83;3.90;;;15.00;99.90;;;;;;5034447;28;20253;-44
2022/06/06 04:57:49;;;;;;;5.33;3.80;;;15.00;99.90;;;;;;5032474;28;20212;-44
2022/06/06 05:00:15;;;;;;;4.37;3.97;;;15.10;99.90;;;;;;5049178;28;20645;-44
2022/06/06 05:02:42;;;;;;;4.47;4.00;;;15.10;99.90;;;;;;5015898;28;20271;-45
2022/06/06 05:05:09;;;;;;;6.07;3.77;;;15.10;99.90;;;;;;5049005;28;20190;-44
2022/06/06 05:07:44;;;;;;;5.40;3.87;;;15.10;99.90;;;;;;5032350;28;20185;-44
2022/06/06 05:10:19;;;;;;;6.03;3.60;;;15.10;99.90;;;;;;5049285;28;20254;-44
2022/06/06 05:13:17;;;;;;;5.17;4.10;;;15.20;99.90;;;;;;5015995;28;20201;-44
2022/06/06 05:16:01;;;;;;;8.13;4.13;;;15.30;99.90;;;;;;5032894;28;20177;-44
2022/06/06 05:18:49;;;;;;;4.03;3.73;;;15.30;99.90;;;;;;5052886;28;20209;-44
2022/06/06 05:21:43;;;;;;;4.50;4.10;;;15.30;99.90;;;;;;5019749;28;20185;-43
2022/06/06 05:24:14;;;;;;;5.97;3.93;;;15.30;99.90;;;;;;5052470;28;20239;-44
2022/06/06 05:26:53;;;;;;;7.03;3.80;;;15.40;99.90;;;;;;5036250;28;20178;-44
2022/06/06 05:29:21;;;;;;;4.47;3.83;;;15.50;99.90;;;;;;5036129;28;20217;-44
2022/06/06 05:32:11;;;;;;;4.30;4.00;;;15.60;99.90;;;;;;5035912;28;20194;-44
2022/06/06 05:34:59;;;;;;;5.63;4.00;;;15.70;99.90;;;;;;5035644;28;20257;-44
2022/06/06 05:37:43;;;;;;;4.03;3.73;;;15.90;99.90;;;;;;5036115;28;20209;-44
2022/06/06 05:40:14;;;;;;;4.67;4.17;;;16.00;99.90;;;;;;5020051;28;20269;-44
2022/06/06 05:43:00;;;;;;;4.63;3.83;;;16.20;99.90;;;;;;5035774;28;20206;-44
2022/06/06 05:45:57;;;;;;;5.83;3.80;;;16.40;99.90;;;;;;5035651;28;20181;-44
2022/06/06 05:48:58;;;;;;;4.13;3.73;;;16.50;99.90;;;;;;5020261;28;20194;-44
2022/06/06 05:51:51;;;;;;;6.50;3.83;;;16.50;99.90;;;;;;5016305;28;20193;-44
2022/06/06 05:54:41;;;;;;;3.93;3.60;;;16.70;99.90;;;;;;5020530;28;20321;-44
2022/06/06 05:57:28;;;;;;;5.67;4.17;;;16.80;99.90;;;;;;5018887;28;20205;-44
2022/06/06 06:00:19;;;;;;;6.27;3.83;;;16.80;99.90;;;;;;5053473;28;20621;-44
2022/06/06 06:03:29;;;;;;;4.60;4.00;;;16.80;99.90;;;;;;5032171;28;20202;-44
2022/06/06 06:05:55;;;;;;;3.93;3.53;;;16.90;99.90;;;;;;4971667;28;20207;-45
2022/06/06 06:08:35;;;;;;;5.93;4.00;;;17.00;99.90;;;;;;5040262;28;20209;-44
2022/06/06 06:11:24;;;;;;;4.30;3.90;;;17.10;99.90;;;;;;5035342;28;20264;-44
2022/06/06 06:14:06;;;;;;;4.30;3.90;;;17.30;99.90;;;;;;5051599;28;20265;-44
2022/06/06 06:16:40;;;;;;;4.07;3.77;;;17.40;99.90;;;;;;5035462;28;20201;-44
2022/06/06 06:19:14;;;;;;;4.07;3.67;;;17.60;99.90;;;;;;5039528;28;20204;-44
2022/06/06 06:22:03;;;;;;;4.55;4.18;;;17.80;99.90;;;;;;5023028;28;20201;-44
2022/06/06 06:24:40;;;;;;;4.15;3.55;;;17.90;99.90;;;;;;5045359;28;20206;-44
2022/06/06 06:27:07;;;;;;;4.22;3.67;;;18.00;99.90;;;;;;5011894;28;20204;-44
2022/06/06 06:29:34;;;;;;;4.95;3.88;;;18.10;99.90;;;;;;5019452;28;20187;-44
2022/06/06 06:32:44;;;;;;;4.32;3.92;;;18.10;99.90;;;;;;5042053;28;20316;-44
2022/06/06 06:35:32;;;;;;;4.47;4.07;;;18.30;99.90;;;;;;5039466;28;20643;-44
2022/06/06 06:38:34;;;;;;;5.25;3.95;;;18.40;99.90;;;;;;5043156;28;20201;-44
2022/06/06 06:41:00;;;;;;;6.93;3.50;;;18.40;99.90;;;;;;5026151;28;20260;-44
2022/06/06 06:43:39;;;;;;;4.80;4.35;;;18.40;99.90;;;;;;5020986;28;20190;-45
2022/06/06 06:46:39;;;;;;;5.68;3.80;;;18.50;99.90;;;;;;5015557;28;20277;-44
2022/06/06 06:49:43;;;;;;;6.57;4.32;;;18.50;99.90;;;;;;4990723;28;20256;-44
2022/06/06 06:52:21;;;;;;;4.97;3.70;;;18.50;99.90;;;;;;5011462;28;20361;-44
2022/06/06 06:54:56;;;;;;;5.60;4.20;;;18.50;99.90;;;;;;5037363;28;20197;-44
2022/06/06 06:57:52;;;;;;;4.43;4.05;;;18.60;99.90;;;;;;5050422;28;20209;-44
2022/06/06 07:00:21;;;;;;;3.92;3.47;;;18.70;99.90;;;;;;5021067;28;20174;-44
2022/06/06 07:09:06;;;;;;;4.03;3.70;;;19.00;99.90;;;;;;5000785;28;20186;-44
2022/06/06 07:11:36;;;;;;;4.03;3.63;;;19.10;99.90;;;;;;5041468;28;20263;-44
2022/06/06 07:14:14;;;;;;;5.10;3.78;;;19.00;99.90;;;;;;5040728;28;20170;-44
2022/06/06 07:16:40;;;;;;;5.32;4.20;;;19.10;99.90;;;;;;5025613;28;20182;-44
2022/06/06 07:19:17;;;;;;;4.63;4.20;;;19.20;99.90;;;;;;5017562;28;20245;-44
2022/06/06 07:21:45;;;;;;;4.78;3.85;;;19.30;99.90;;;;;;5034114;28;20202;-44
2022/06/06 07:24:15;;;;;;;4.68;3.83;;;19.50;99.90;;;;;;5016782;28;20198;-44
2022/06/06 07:26:43;;;;;;;4.03;3.72;;;19.60;99.90;;;;;;5049575;28;20193;-44
2022/06/06 07:29:13;;;;;;;4.38;3.95;;;19.80;99.90;;;;;;5033749;28;20174;-44
2022/06/06 07:31:42;;;;;;;6.30;3.67;;;19.90;99.90;;;;;;5048834;28;20252;-44
2022/06/06 07:34:28;;;;;;;4.80;3.83;;;20.00;99.90;;;;;;5020419;28;20267;-44
2022/06/06 07:37:14;;;;;;;3.47;3.17;;;20.00;99.90;;;;;;5050254;28;20182;-45
2022/06/06 07:40:31;;;;;;;3.22;2.83;;;20.20;99.90;;;;;;5051895;28;20319;-44
2022/06/06 07:43:03;;;;;;;3.88;3.00;;;20.30;99.90;;;;;;4994560;28;20238;-44
2022/06/06 07:45:43;;;;;;;4.47;2.95;;;20.40;99.90;;;;;;5048770;28;20182;-44
2022/06/06 07:48:22;;;;;;;5.25;3.40;;;20.40;99.90;;;;;;5030186;28;20171;-44
2022/06/06 07:50:59;;;;;;;3.05;2.80;;;20.40;99.90;;;;;;5016438;28;20178;-44
2022/06/06 07:53:38;;;;;;;3.75;2.90;;;20.40;99.90;;;;;;5024859;28;20225;-45
2022/06/06 07:56:10;;;;;;;3.22;2.92;;;20.40;99.90;;;;;;5046248;28;20264;-44
2022/06/06 07:59:10;;;;;;;3.78;3.05;;;20.50;99.90;;;;;;5046738;28;20287;-44
2022/06/06 08:01:55;;;;;;;3.42;2.90;;;20.70;99.90;;;;;;5017409;28;20231;-44
2022/06/06 08:04:34;;;;;;;3.08;2.78;;;20.80;99.90;;;;;;5044036;28;20199;-44
2022/06/06 08:07:21;;;;;;;3.28;2.60;;;21.00;99.90;;;;;;5047509;28;20178;-44
2022/06/06 08:09:55;;;;;;;3.58;2.70;;;21.20;99.90;;;;;;5050675;28;20265;-44
2022/06/06 08:12:49;;;;;;;3.35;2.50;;;21.30;99.90;;;;;;5021316;28;20277;-44
2022/06/06 08:15:28;;;;;;;4.00;2.50;;;21.30;99.90;;;;;;4997510;28;20194;-44
2022/06/06 08:18:12;;;;;;;3.33;2.67;;;21.20;99.90;;;;;;5024821;28;20273;-44
2022/06/06 08:21:25;;;;;;;2.95;2.60;;;21.20;99.90;;;;;;5033556;28;20212;-44
2022/06/06 08:23:55;;;;;;;4.10;2.42;;;21.40;99.90;;;;;;5010142;28;20318;-45
2022/06/06 08:26:26;;;;;;;3.00;2.70;;;21.60;99.90;;;;;;5013218;28;20175;-44
2022/06/06 08:28:53;;;;;;;3.03;2.70;;;21.70;99.90;;;;;;4997294;28;20193;-44
2022/06/06 08:31:20;;;;;;;3.67;2.45;;;21.90;99.90;;;;;;5013810;28;20249;-44
2022/06/06 08:33:48;;;;;;;2.83;2.25;;;21.80;99.90;;;;;;5030964;28;20685;-44
2022/06/06 08:36:38;;;;;;;2.97;2.70;;;21.70;99.90;;;;;;5017566;28;20253;-44
2022/06/06 08:39:22;;;;;;;4.00;2.60;;;21.70;99.90;;;;;;5017066;28;20204;-44
2022/06/06 08:42:24;;;;;;;3.55;2.35;;;21.80;99.90;;;;;;5050615;28;20200;-44
2022/06/06 08:45:14;;;;;;;2.47;2.10;;;21.90;99.90;;;;;;5015981;28;20173;-44
2022/06/06 08:47:59;;;;;;;2.88;2.08;;;21.90;99.90;;;;;;5023561;28;20174;-45
2022/06/06 08:50:46;;;;;;;5.18;2.20;;;21.90;99.90;;;;;;5048809;28;20264;-44
2022/06/06 08:53:50;;;;;;;2.55;2.20;;;21.80;99.90;;;;;;5031744;28;20220;-44
2022/06/06 08:56:34;;;;;;;3.97;2.38;;;21.90;99.90;;;;;;5037568;28;20181;-44
2022/06/06 08:59:37;;;;;;;3.20;2.10;;;21.80;99.90;;;;;;5038877;28;20198;-44
2022/06/06 09:02:25;;;;;;;2.25;2.05;;;21.90;99.90;;;;;;5026301;28;20193;-44
2022/06/06 09:05:12;;;;;;;2.47;2.15;;;22.00;99.90;;;;;;5030719;28;20169;-44
2022/06/06 09:07:41;;;;;;;2.92;2.40;;;22.10;99.90;;;;;;5032802;28;20173;-44
2022/06/06 09:10:44;;;;;;;2.42;2.10;;;22.10;99.90;;;;;;5026934;28;20202;-44
2022/06/06 09:13:36;;;;;;;2.88;2.03;;;22.10;99.90;;;;;;5013666;28;20205;-45
2022/06/06 09:16:21;;;;;;;2.75;2.28;;;22.30;99.90;;;;;;5025929;28;20195;-44
2022/06/06 09:19:25;;;;;;;3.85;2.45;;;22.40;99.90;;;;;;5013324;28;20186;-44
2022/06/06 09:22:20;;;;;;;4.45;2.25;;;22.70;99.90;;;;;;5013488;28;20203;-45
2022/06/06 09:24:55;;;;;;;4.13;2.05;;;23.00;99.90;;;;;;5062817;22;20299;-32
2022/06/06 09:27:39;;;;;;;4.78;2.10;;;23.30;99.90;;;;;;5009011;28;20194;-31
2022/06/06 09:30:18;;;;;;;3.72;2.25;;;23.30;99.90;;;;;;5010565;28;20180;-32
2022/06/06 09:32:59;;;;;;;2.70;2.15;;;23.50;99.90;;;;;;4993900;28;20187;-31
2022/06/06 09:35:39;;;;;;;4.45;2.05;;;23.50;99.90;;;;;;4990675;28;20179;-31
2022/06/06 09:38:09;;;;;;;4.07;2.10;;;23.70;99.90;;;;;;4993448;28;20277;-33
2022/06/06 09:41:01;;;;;;;3.47;2.20;;;23.70;99.90;;;;;;4997798;28;20179;-32
2022/06/06 09:44:02;;;;;;;2.53;2.08;;;23.60;99.90;;;;;;4992056;28;20290;-32
2022/06/06 09:46:40;;;;;;;2.42;1.90;;;23.60;99.90;;;;;;4994151;28;20284;-30
2022/06/06 09:49:41;;;;;;;3.17;1.88;;;23.50;99.90;;;;;;4994020;28;20175;-32
2022/06/06 09:52:06;;;;;;;2.95;1.70;;;23.40;99.90;;;;;;4993917;28;20171;-31
2022/06/06 10:01:12;;;;;;;2.63;1.88;;;23.30;99.90;;;;;;4994056;28;20211;-31
2022/06/06 10:03:56;;;;;;;4.50;3.40;;;23.00;99.90;;;;;;4995766;28;20192;-32
2022/06/06 10:06:46;;;;;;;4.53;2.45;;;22.90;99.90;;;;;;4981097;28;20611;-34
2022/06/06 10:09:37;;;;;;;1.90;1.80;;;22.80;99.90;;;;;;4981076;28;20179;-31
2022/06/06 10:12:27;;;;;;;2.75;1.65;;;22.60;99.90;;;;;;5012119;28;20202;-33
2022/06/06 10:15:11;;;;;;;2.65;2.00;;;22.50;99.90;;;;;;5010917;28;20199;-32
2022/06/06 10:17:56;;;;;;;2.95;1.75;;;22.50;99.90;;;;;;5001136;28;20230;-31
2022/06/06 10:20:37;;;;;;;3.67;1.80;;;22.80;99.90;;;;;;4979445;28;20175;-31
2022/06/06 10:23:09;;;;;;;1.95;1.60;;;23.00;99.90;;;;;;4976144;28;20256;-32
2022/06/06 10:25:52;;;;;;;1.67;1.52;;;23.10;99.90;;;;;;5003161;28;20187;-32
2022/06/06 10:28:30;;;;;;;2.85;1.70;;;23.10;99.90;;;;;;4993740;28;20233;-32
2022/06/06 10:31:32;;;;;;;2.15;1.95;;;23.30;99.90;;;;;;4992746;28;20266;-32
2022/06/06 10:34:23;;;;;;;2.05;1.85;;;23.20;99.90;;;;;;5011462;28;20202;-31
2022/06/06 10:37:18;;;;;;;2.95;1.75;;;23.00;99.90;;;;;;5008546;28;20188;-32
2022/06/06 10:40:03;;;;;;;2.47;1.80;;;23.10;99.90;;;;;;5009965;28;20194;-31
2022/06/06 10:42:46;;;;;;;3.60;1.90;;;23.40;99.90;;;;;;4993428;28;20258;-32
2022/06/06 10:45:16;;;;;;;2.85;1.67;;;23.50;99.90;;;;;;4995140;28;20179;-31
2022/06/06 10:48:15;;;;;;;3.15;1.75;;;23.60;99.90;;;;;;5011622;28;20187;-32
2022/06/06 10:54:25;;;;;;;2.83;1.73;;;23.40;99.90;;;;;;5011476;28;20341;-31
2022/06/06 10:56:53;;;;;;;3.30;2.50;;;23.50;99.90;;;;;;5011252;28;20182;-32
2022/06/06 10:59:25;;;;;;;3.25;2.00;;;23.70;99.90;;;;;;5011263;28;20191;-32
2022/06/06 11:02:09;;;;;;;2.03;1.80;;;23.60;99.90;;;;;;5012672;28;20176;-31
2022/06/06 11:05:06;;;;;;;1.98;1.65;;;23.60;99.90;;;;;;4978644;28;20199;-33
2022/06/06 11:07:51;;;;;;;2.05;1.90;;;23.70;99.90;;;;;;4994763;28;20187;-33
2022/06/06 11:10:29;;;;;;;2.60;2.40;;;23.90;99.90;;;;;;4978850;28;20209;-32
2022/06/06 11:13:31;;;;;;;1.95;1.65;;;24.40;99.90;;;;;;5012719;28;20186;-32
2022/06/06 11:16:18;;;;;;;1.90;1.70;;;24.50;99.90;;;;;;5012286;28;20179;-32
2022/06/06 11:18:56;;;;;;;1.77;1.65;;;24.60;99.90;;;;;;4994990;28;20210;-32
2022/06/06 11:21:31;;;;;;;2.47;2.15;;;24.70;99.90;;;;;;4978596;28;20182;-32
2022/06/06 11:24:08;;;;;;;4.20;1.70;;;25.00;99.90;;;;;;4994320;28;20218;-32
2022/06/06 11:27:21;;;;;;;4.80;1.95;;;24.90;99.90;;;;;;5010843;28;20180;-30
2022/06/06 11:29:46;;;;;;;1.70;1.45;;;24.80;99.90;;;;;;4984457;28;20219;-32
2022/06/06 11:33:01;;;;;;;2.25;1.70;;;24.60;99.90;;;;;;4994565;28;20217;-32
2022/06/06 11:35:43;;;;;;;1.67;1.58;;;24.70;99.90;;;;;;4986328;28;20188;-32
2022/06/06 11:38:54;;;;;;;1.50;1.40;;;24.90;99.90;;;;;;4994420;28;20199;-32
2022/06/06 11:41:38;;;;;;;2.13;1.70;;;25.10;99.90;;;;;;4996472;28;20183;-32
2022/06/06 11:44:11;;;;;;;1.85;1.42;;;25.30;99.90;;;;;;5011781;28;20198;-31
2022/06/06 11:46:55;;;;;;;2.33;1.73;;;25.20;99.90;;;;;;4978208;28;20179;-31
2022/06/06 11:50:05;;;;;;;1.65;1.48;;;25.00;99.90;;;;;;4994247;28;20226;-32
2022/06/06 11:52:40;;;;;;;1.50;1.40;;;25.00;99.90;;;;;;5012030;28;20175;-32
2022/06/06 11:55:18;;;;;;;2.75;1.70;;;25.00;99.90;;;;;;4977575;28;20218;-32
2022/06/06 11:58:04;;;;;;;1.50;1.38;;;25.00;99.90;;;;;;4977962;28;20257;-32
2022/06/06 12:00:57;;;;;;;3.17;1.48;;;24.80;99.90;;;;;;4994229;28;20214;-32
2022/06/06 12:03:52;;;;;;;3.17;1.50;;;25.10;99.90;;;;;;5010195;28;20241;-33
2022/06/06 12:06:39;;;;;;;2.45;1.77;;;25.40;99.90;;;;;;4993496;28;20262;-32
2022/06/06 12:09:37;;;;;;;2.05;1.50;;;25.40;99.90;;;;;;4977898;28;20183;-31
2022/06/06 12:12:06;;;;;;;1.58;1.48;;;25.60;99.90;;;;;;5009126;28;20192;-32
2022/06/06 12:14:38;;;;;;;1.70;1.38;;;25.30;99.90;;;;;;5009746;28;20319;-32
2022/06/06 12:17:14;;;;;;;2.05;1.30;;;25.70;99.90;;;;;;4993671;28;20262;-33
2022/06/06 12:20:00;;;;;;;2.55;1.60;;;25.60;99.90;;;;;;4993719;28;20266;-32
2022/06/06 12:22:50;;;;;;;2.03;1.50;;;26.00;99.90;;;;;;5011110;28;20271;-31
2022/06/06 12:25:50;;;;;;;1.58;1.48;;;26.30;99.90;;;;;;4993009;28;20195;-31
2022/06/06 12:28:37;;;;;;;1.50;1.40;;;26.30;99.90;;;;;;4977379;28;20229;-32
2022/06/06 12:31:06;;;;;;;2.38;1.98;;;26.20;99.90;;;;;;4993625;28;20249;-32
2022/06/06 12:34:07;;;;;;;2.92;1.90;;;26.20;99.90;;;;;;5011470;28;20274;-32
2022/06/06 12:36:36;;;;;;;6.25;1.70;;;26.40;99.90;;;;;;4993287;28;20281;-33
2022/06/06 12:39:35;;;;;;;3.40;1.70;;;26.30;99.90;;;;;;4993148;28;20265;-32
2022/06/06 12:42:04;;;;;;;2.47;1.75;;;26.50;99.90;;;;;;5003086;28;20191;-32
2022/06/06 12:44:48;;;;;;;2.10;1.60;;;26.40;99.90;;;;;;4993357;28;20265;-32
2022/06/06 12:47:30;;;;;;;2.83;1.88;;;26.50;99.90;;;;;;4993409;28;20194;-32
2022/06/06 12:50:08;;;;;;;1.95;1.67;;;26.70;99.90;;;;;;4977337;28;20202;-32
2022/06/06 12:52:54;;;;;;;1.90;1.40;;;26.60;99.90;;;;;;4977230;28;20524;-32
2022/06/06 12:55:43;;;;;;;1.92;1.60;;;26.70;99.90;;;;;;4993324;28;20210;-32
2022/06/06 12:58:08;;;;;;;2.63;1.80;;;26.80;99.90;;;;;;4993240;28;20219;-32
2022/06/06 13:03:35;;;;;;;1.83;1.73;;;26.30;99.70;;;;;;5010920;28;20202;-32
2022/06/06 13:06:08;;;;;;;1.83;1.63;;;26.20;99.90;;;;;;4993054;28;20193;-31
2022/06/06 13:09:11;;;;;;;1.77;1.30;;;26.10;99.80;;;;;;4993536;28;20257;-32
2022/06/06 13:11:52;;;;;;;1.52;1.40;;;26.00;98.20;;;;;;4993507;28;20234;-32
2022/06/06 13:14:39;;;;;;;1.92;1.40;;;26.00;99.70;;;;;;5009411;28;20207;-33
2022/06/06 13:17:11;;;;;;;2.67;1.73;;;26.30;99.90;;;;;;4993064;28;20190;-31
2022/06/06 13:19:46;;;;;;;2.13;1.92;;;26.50;98.70;;;;;;4976835;28;20179;-33
2022/06/06 13:22:11;;;;;;;1.70;1.60;;;26.70;99.90;;;;;;5010931;28;20171;-32
2022/06/06 13:25:06;;;;;;;2.28;1.40;;;26.40;98.90;;;;;;4989373;28;20215;-33
2022/06/06 13:27:58;;;;;;;1.80;1.50;;;26.30;99.90;;;;;;5001056;28;20179;-33
2022/06/06 13:30:38;;;;;;;18.42;12.57;;;26.20;99.00;;;;;;4957686;28;20188;-33
2022/06/06 13:33:25;;;;;;;109.53;82.57;;;26.20;99.60;;;;;;4973291;28;20195;-33
2022/06/06 13:35:59;;;;;;;12.05;10.82;;;26.30;99.90;;;;;;4957073;28;20183;-32
2022/06/06 13:39:18;;;;;;;32.15;28.70;;;26.50;99.30;;;;;;5003844;28;20238;-32
2022/06/06 13:41:54;;;;;;;2.90;2.30;;;26.80;99.90;;;;;;4976687;28;20184;-34
2022/06/06 13:44:52;;;;;;;4.38;3.17;;;27.10;99.30;;;;;;5005996;28;20202;-34
2022/06/06 13:47:56;;;;;;;2.45;2.15;;;27.40;99.90;;;;;;4998777;28;20188;-32
2022/06/06 13:50:58;;;;;;;2.53;2.22;;;27.20;99.10;;;;;;5007010;28;20179;-34
2022/06/06 13:53:37;;;;;;;2.63;2.17;;;27.30;99.90;;;;;;5013938;28;20269;-33
2022/06/06 13:56:30;;;;;;;3.75;2.25;;;27.50;99.90;;;;;;4986059;28;20176;-33
2022/06/06 13:59:00;;;;;;;3.55;2.40;;;27.70;99.70;;;;;;4997366;28;20253;-32
2022/06/06 14:01:40;;;;;;;6.05;5.55;;;27.70;99.30;;;;;;4995876;28;20172;-32
2022/06/06 14:04:15;;;;;;;2.65;2.08;;;27.70;99.40;;;;;;5013812;28;20221;-33
2022/06/06 14:07:17;;;;;;;2.10;1.70;;;27.30;98.80;;;;;;5014626;28;20182;-33
2022/06/06 14:09:46;;;;;;;2.58;2.38;;;27.10;99.90;;;;;;5014473;28;20167;-31
2022/06/06 14:12:25;;;;;;;2.67;2.30;;;27.10;99.90;;;;;;5012420;28;20172;-33
2022/06/06 14:15:02;;;;;;;3.42;2.40;;;26.90;99.60;;;;;;4995661;28;20226;-31
2022/06/06 14:17:33;;;;;;;1.95;1.60;;;27.10;99.80;;;;;;4995995;28;20242;-32
2022/06/06 14:20:19;;;;;;;2.17;1.98;;;27.40;99.90;;;;;;5012388;28;20203;-33
2022/06/06 14:22:47;;;;;;;2.33;1.55;;;27.70;99.90;;;;;;4996019;28;20187;-32
2022/06/06 14:25:13;;;;;;;2.15;1.77;;;27.90;99.90;;;;;;4986525;28;20282;-32
2022/06/06 14:27:41;;;;;;;2.22;1.90;;;28.20;99.90;;;;;;4976242;28;20219;-32